Time;durP1;ratioP1;P1;durP2;ratioP2;P2;SDS_P1;SDS_P2;PMS_P1;PMS_P2;Temp;Humidity;BMP_temperature;BMP_pressure;BME280_temperature;BME280_humidity;BME280_pressure;Samples;Min_cycle;Max_cycle;Signal;HPM_P1;HPM_P2
2022/08/31 00:04:39;;;;;;;16.83;11.77;;;;;;;19.44;100.00;64008.78;5018567;28;20504;-74
2022/08/31 00:07:06;;;;;;;12.25;10.50;;;;;;;19.41;100.00;64010.81;5011141;28;20241;-74
2022/08/31 00:09:33;;;;;;;14.40;10.90;;;;;;;19.39;100.00;64005.63;5026077;28;20270;-75
2022/08/31 00:12:00;;;;;;;15.40;11.27;;;;;;;19.39;100.00;64008.72;5023216;28;20256;-76
2022/08/31 00:14:27;;;;;;;15.38;10.35;;;;;;;19.34;100.00;64000.94;5012317;28;20514;-75
2022/08/31 00:16:54;;;;;;;15.05;11.35;;;;;;;19.37;100.00;64006.66;5026426;28;20402;-74
2022/08/31 00:19:21;;;;;;;11.70;10.50;;;;;;;19.36;100.00;64005.59;5027762;28;20202;-74
2022/08/31 00:21:50;;;;;;;12.77;11.15;;;;;;;19.41;100.00;64010.81;5021239;28;20222;-73
2022/08/31 00:24:17;;;;;;;12.55;10.40;;;;;;;19.41;100.00;64008.22;5024888;28;20198;-75
2022/08/31 00:26:44;;;;;;;15.13;11.38;;;;;;;19.45;100.00;64014.44;5025758;28;20232;-74
2022/08/31 00:29:11;;;;;;;15.50;10.93;;;;;;;19.54;100.00;64021.78;5026207;28;20533;-73
2022/08/31 00:31:37;;;;;;;13.57;11.05;;;;;;;19.54;100.00;64023.84;5020320;28;20230;-74
2022/08/31 00:34:05;;;;;;;12.85;10.98;;;;;;;19.55;100.00;64022.81;5028907;28;20205;-75
2022/08/31 00:36:32;;;;;;;12.15;10.60;;;;;;;19.62;100.00;64031.66;5025469;28;20272;-75
2022/08/31 00:39:00;;;;;;;11.48;10.25;;;;;;;19.68;100.00;64035.88;5022570;28;20202;-74
2022/08/31 00:41:30;;;;;;;11.68;10.48;;;;;;;19.69;100.00;64034.31;5024335;28;20225;-75
2022/08/31 00:43:59;;;;;;;16.25;11.48;;;;;;;19.74;100.00;64044.19;5024482;28;20198;-74
2022/08/31 00:46:29;;;;;;;16.10;11.63;;;;;;;19.79;100.00;64046.81;5021769;28;20436;-74
2022/08/31 00:49:03;;;;;;;15.32;11.13;;;;;;;19.87;100.00;64058.28;5027832;28;20475;-75
2022/08/31 00:51:36;;;;;;;16.08;11.05;;;;;;;19.90;100.00;64056.22;5025695;28;20220;-74
2022/08/31 00:54:06;;;;;;;13.43;11.20;;;;;;;19.92;100.00;64057.78;5019986;28;20202;-76
2022/08/31 00:56:34;;;;;;;13.32;11.05;;;;;;;19.98;100.00;64067.16;5005542;28;20218;-75
2022/08/31 00:59:02;;;;;;;14.15;11.38;;;;;;;20.02;100.00;64071.31;5006741;28;20550;-75
2022/08/31 01:01:29;;;;;;;11.15;10.05;;;;;;;20.07;100.00;64076.03;5025283;28;20531;-75
2022/08/31 01:03:57;;;;;;;11.80;10.60;;;;;;;20.05;100.00;64073.94;5022811;28;20216;-73
2022/08/31 01:06:24;;;;;;;12.60;10.82;;;;;;;20.02;100.00;64070.81;5027863;28;20217;-73
2022/08/31 01:08:53;;;;;;;11.35;10.18;;;;;;;20.01;100.00;64070.28;5022750;28;20202;-74
2022/08/31 01:11:22;;;;;;;14.40;11.05;;;;;;;20.02;100.00;64070.81;5026645;28;20217;-74
2022/08/31 01:13:49;;;;;;;16.98;12.10;;;;;;;20.03;100.00;64069.28;5005235;28;20203;-75
2022/08/31 01:16:20;;;;;;;15.70;10.93;;;;;;;19.99;100.00;64065.63;5005241;28;20229;-74
2022/08/31 01:18:48;;;;;;;12.68;11.38;;;;;;;20.00;100.00;64069.25;5015478;28;20261;-75
2022/08/31 01:21:25;;;;;;;13.45;11.75;;;;;;;19.99;100.00;64065.09;5026917;28;20225;-75
2022/08/31 01:23:56;;;;;;;12.68;11.13;;;;;;;20.00;100.00;64068.72;5024929;28;20201;-75
2022/08/31 01:26:28;;;;;;;13.10;11.65;;;;;;;19.91;100.00;64062.44;5022260;28;20261;-74
2022/08/31 01:29:00;;;;;;;11.57;10.07;;;;;;;19.87;100.00;64055.16;5022471;28;20252;-74
2022/08/31 01:31:31;;;;;;;12.40;11.13;;;;;;;19.83;100.00;64048.41;5024465;28;20225;-73
2022/08/31 01:33:58;;;;;;;13.75;10.88;;;;;;;19.78;100.00;64048.88;5025452;28;20273;-73
2022/08/31 01:36:26;;;;;;;11.45;10.35;;;;;;;19.75;100.00;64040.06;5018009;28;20229;-73
2022/08/31 01:38:55;;;;;;;12.45;11.15;;;;;;;19.75;100.00;64043.16;5019381;28;20537;-74
2022/08/31 01:41:22;;;;;;;13.38;10.55;;;;;;;19.75;100.00;64043.16;5024895;28;20226;-75
2022/08/31 01:43:51;;;;;;;11.35;10.25;;;;;;;19.68;100.00;64030.69;5022665;28;20256;-73
2022/08/31 01:46:19;;;;;;;13.00;10.60;;;;;;;19.64;100.00;64031.19;5010874;28;20222;-75
2022/08/31 01:48:47;;;;;;;12.73;10.55;;;;;;;19.56;100.00;64025.94;5019577;28;20205;-74
2022/08/31 01:51:16;;;;;;;10.65;9.65;;;;;;;19.55;100.00;64024.91;5024179;28;20280;-75
2022/08/31 01:53:45;;;;;;;12.13;10.98;;;;;;;19.52;100.00;64019.69;5022983;28;20198;-75
2022/08/31 01:56:16;;;;;;;15.63;13.00;;;;;;;19.50;100.00;64017.59;5021280;28;20217;-74
2022/08/31 01:58:43;;;;;;;17.55;12.40;;;;;;;19.44;100.00;64010.84;5004755;28;20207;-74
2022/08/31 02:01:10;;;;;;;13.35;11.60;;;;;;;19.43;100.00;64010.31;5004448;28;20227;-75
2022/08/31 02:03:37;;;;;;;14.93;11.55;;;;;;;19.39;100.00;64008.19;5019999;28;20214;-74
2022/08/31 02:06:08;;;;;;;11.35;10.18;;;;;;;19.35;100.00;64001.44;5005658;28;20281;-74
2022/08/31 02:08:35;;;;;;;12.45;11.25;;;;;;;19.34;100.00;64003.00;5016198;28;20198;-74
2022/08/31 02:11:02;;;;;;;13.57;10.80;;;;;;;19.28;100.00;63997.22;5023589;28;20230;-74
2022/08/31 02:13:31;;;;;;;12.10;10.90;;;;;;;19.28;100.00;63996.69;5024844;28;20502;-74
2022/08/31 02:15:58;;;;;;;14.10;10.70;;;;;;;19.21;100.00;63987.34;5024111;28;20269;-75
2022/08/31 02:18:26;;;;;;;11.38;9.90;;;;;;;19.22;100.00;63990.47;5013639;28;20206;-74
2022/08/31 02:20:53;;;;;;;14.45;10.40;;;;;;;19.17;100.00;63978.00;5009393;28;20249;-74
2022/08/31 02:23:20;;;;;;;13.32;10.75;;;;;;;19.13;100.00;63979.00;5023386;28;20402;-75
2022/08/31 02:25:47;;;;;;;19.00;11.50;;;;;;;19.08;100.00;63973.28;5023218;28;20218;-75
2022/08/31 02:28:17;;;;;;;15.48;10.98;;;;;;;19.05;100.00;63973.25;5005373;28;20205;-74
2022/08/31 02:30:45;;;;;;;11.93;10.63;;;;;;;19.03;100.00;63973.22;5018750;28;20243;-74
2022/08/31 02:33:12;;;;;;;13.43;10.82;;;;;;;18.95;100.00;63962.81;5023200;28;20433;-74
2022/08/31 02:35:40;;;;;;;11.32;10.13;;;;;;;18.97;100.00;63959.75;5020574;28;20514;-75
2022/08/31 02:38:08;;;;;;;13.38;10.57;;;;;;;18.89;100.00;63954.00;5005455;28;20391;-74
2022/08/31 02:40:37;;;;;;;11.48;10.43;;;;;;;18.89;100.00;63950.88;5011900;28;20229;-76
2022/08/31 02:43:04;;;;;;;11.60;10.48;;;;;;;18.88;100.00;63947.28;5023585;28;20488;-74
2022/08/31 02:45:31;;;;;;;13.68;10.15;;;;;;;18.85;100.00;63949.81;5015267;28;20203;-75
2022/08/31 02:47:59;;;;;;;12.80;10.85;;;;;;;18.82;100.00;63949.28;5007469;28;20499;-74
2022/08/31 02:50:25;;;;;;;15.60;10.77;;;;;;;18.80;100.00;63944.59;5023583;28;20233;-75
2022/08/31 02:52:55;;;;;;;13.65;11.80;;;;;;;18.75;100.00;63944.03;5028366;28;20201;-74
2022/08/31 02:55:22;;;;;;;13.52;10.90;;;;;;;18.73;100.00;63939.88;5025208;28;20252;-75
2022/08/31 02:57:50;;;;;;;13.68;11.65;;;;;;;18.68;100.00;63934.69;5027821;28;20522;-74
2022/08/31 03:00:18;;;;;;;13.10;11.82;;;;;;;18.58;100.00;63924.25;5027788;28;20204;-73
2022/08/31 03:02:45;;;;;;;17.13;11.52;;;;;;;18.53;100.00;63913.38;5021155;28;20319;-75
2022/08/31 03:05:13;;;;;;;15.15;11.98;;;;;;;18.47;100.00;63905.06;5009573;28;20216;-74
2022/08/31 03:07:40;;;;;;;15.45;11.82;;;;;;;18.48;100.00;63910.72;5016895;28;20222;-74
2022/08/31 03:10:10;;;;;;;14.73;11.93;;;;;;;18.43;100.00;63906.56;5028776;28;20229;-74
2022/08/31 03:12:38;;;;;;;12.93;11.43;;;;;;;18.40;100.00;63900.88;5019031;28;20218;-74
2022/08/31 03:15:07;;;;;;;14.15;10.93;;;;;;;18.40;100.00;63900.88;5025026;28;20519;-75
2022/08/31 03:17:34;;;;;;;13.63;11.18;;;;;;;18.42;100.00;63902.94;5027243;28;20233;-74
2022/08/31 03:20:02;;;;;;;13.15;11.48;;;;;;;18.41;100.00;63906.53;5027078;28;20217;-74
2022/08/31 03:22:31;;;;;;;12.82;11.50;;;;;;;18.41;100.00;63901.38;5013733;28;20458;-75
2022/08/31 03:24:58;;;;;;;18.60;11.77;;;;;;;18.40;100.00;63905.50;5007586;28;20218;-73
2022/08/31 03:27:26;;;;;;;16.38;11.73;;;;;;;18.37;100.00;63902.34;5014646;28;20257;-75
2022/08/31 03:29:53;;;;;;;12.68;11.45;;;;;;;18.27;100.00;63889.34;5024437;28;20403;-73
2022/08/31 03:32:21;;;;;;;12.40;11.10;;;;;;;18.21;100.00;63878.47;5009333;28;20438;-75
2022/08/31 03:34:48;;;;;;;12.93;11.73;;;;;;;18.19;100.00;63884.13;5008177;28;20257;-74
2022/08/31 03:37:15;;;;;;;13.18;11.75;;;;;;;18.23;100.00;63885.19;5009027;28;20218;-74
2022/08/31 03:39:43;;;;;;;14.48;10.77;;;;;;;18.20;100.00;63882.59;5022989;28;20233;-75
2022/08/31 03:42:10;;;;;;;12.63;11.15;;;;;;;18.16;100.00;63881.00;5026433;28;20222;-74
2022/08/31 03:44:37;;;;;;;15.73;10.90;;;;;;;18.15;100.00;63885.09;5026649;28;20237;-74
2022/08/31 03:47:04;;;;;;;12.65;10.48;;;;;;;18.12;100.00;63873.72;5025960;28;20226;-74
2022/08/31 03:49:31;;;;;;;13.15;11.05;;;;;;;18.12;100.00;63874.25;5016948;28;20503;-74
2022/08/31 03:51:58;;;;;;;11.57;10.38;;;;;;;18.12;100.00;63874.25;5007382;28;20238;-74
2022/08/31 03:54:25;;;;;;;13.80;12.15;;;;;;;18.14;100.00;63873.75;5006437;28;20211;-74
2022/08/31 03:56:53;;;;;;;12.73;11.43;;;;;;;18.12;100.00;63876.81;5012052;28;20580;-76
2022/08/31 03:59:20;;;;;;;13.48;11.55;;;;;;;18.11;100.00;63873.22;5022498;28;20205;-75
2022/08/31 04:01:47;;;;;;;12.38;11.00;;;;;;;18.11;100.00;63872.69;5027113;28;20218;-74
2022/08/31 04:04:15;;;;;;;16.15;11.50;;;;;;;18.10;100.00;63871.66;5024145;28;20216;-74
2022/08/31 04:06:44;;;;;;;17.05;11.48;;;;;;;18.12;100.00;63876.81;5025715;28;20217;-74
2022/08/31 04:09:11;;;;;;;13.77;11.25;;;;;;;18.19;100.00;63878.44;5026058;28;20209;-74
2022/08/31 04:11:40;;;;;;;20.95;11.93;;;;;;;18.18;100.00;63883.06;5017085;28;20230;-75
2022/08/31 04:14:09;;;;;;;13.85;11.10;;;;;;;18.23;100.00;63885.72;5006273;28;20205;-74
2022/08/31 04:16:37;;;;;;;13.18;10.60;;;;;;;18.28;100.00;63896.06;5018108;28;20226;-75
2022/08/31 04:19:04;;;;;;;13.38;10.75;;;;;;;18.27;100.00;63886.78;5026667;28;20499;-75
2022/08/31 04:21:32;;;;;;;17.42;11.43;;;;;;;18.36;100.00;63898.75;5021120;28;20229;-75
2022/08/31 04:24:00;;;;;;;12.50;11.07;;;;;;;18.43;100.00;63911.72;5026043;28;20198;-75
2022/08/31 04:26:29;;;;;;;17.05;12.70;;;;;;;18.39;100.00;63899.81;5025472;28;20218;-74
2022/08/31 04:28:56;;;;;;;16.50;12.95;;;;;;;18.43;100.00;63906.56;5013387;28;20206;-75
2022/08/31 04:31:26;;;;;;;17.63;11.45;;;;;;;18.56;100.00;63919.59;5006949;28;20277;-74
2022/08/31 04:33:55;;;;;;;12.00;10.75;;;;;;;18.64;100.00;63925.34;5007141;28;20199;-76
2022/08/31 04:36:23;;;;;;;15.68;12.10;;;;;;;18.75;100.00;63938.88;5021273;28;20257;-74
2022/08/31 04:38:52;;;;;;;13.68;11.73;;;;;;;18.82;100.00;63946.69;5025960;28;20244;-73
2022/08/31 04:41:22;;;;;;;15.68;13.90;;;;;;;18.94;100.00;63956.63;5025614;28;20373;-74
2022/08/31 04:43:52;;;;;;;18.55;14.05;;;;;;;19.04;100.00;63966.50;5029124;28;20254;-74
2022/08/31 04:46:20;;;;;;;19.90;13.98;;;;;;;19.13;100.00;63979.00;5020753;28;20222;-75
2022/08/31 04:48:48;;;;;;;15.40;13.75;;;;;;;19.14;100.00;63982.09;5010286;28;20202;-74
2022/08/31 04:51:23;;;;;;;17.40;14.35;;;;;;;19.02;100.00;63967.53;5011060;28;20431;-75
2022/08/31 04:53:51;;;;;;;20.65;15.50;;;;;;;18.79;100.00;63943.56;5009168;28;20506;-76
2022/08/31 04:56:20;;;;;;;18.55;16.17;;;;;;;18.79;100.00;63945.63;5015129;28;20223;-74
2022/08/31 04:58:51;;;;;;;16.80;14.38;;;;;;;18.83;100.00;63947.72;5007163;28;20237;-74
2022/08/31 05:01:19;;;;;;;20.40;14.52;;;;;;;18.82;100.00;63944.13;5008122;28;20222;-75
2022/08/31 05:03:51;;;;;;;20.08;15.68;;;;;;;18.82;100.00;63943.59;5022208;28;20252;-75
2022/08/31 05:06:21;;;;;;;17.00;13.95;;;;;;;19.07;100.00;63975.31;5010334;28;20214;-75
2022/08/31 05:08:51;;;;;;;16.15;14.35;;;;;;;19.31;100.00;64005.53;5027053;28;20552;-74
2022/08/31 05:11:20;;;;;;;16.80;13.18;;;;;;;19.40;100.00;64006.66;5024082;28;20570;-76
2022/08/31 05:13:48;;;;;;;17.63;13.25;;;;;;;19.58;100.00;64025.44;5019494;28;20256;-74
2022/08/31 05:16:16;;;;;;;14.43;12.93;;;;;;;19.67;100.00;64034.31;5004927;28;20219;-75
2022/08/31 05:18:45;;;;;;;16.40;14.18;;;;;;;19.57;100.00;64023.88;5005265;28;20395;-75
2022/08/31 05:21:14;;;;;;;22.83;14.60;;;;;;;19.55;100.00;64020.25;5006288;28;20227;-75
2022/08/31 05:23:46;;;;;;;16.73;14.23;;;;;;;19.72;100.00;64040.03;5020798;28;20209;-75
2022/08/31 05:26:17;;;;;;;17.92;14.20;;;;;;;19.92;100.00;64060.91;5025508;28;20222;-75
2022/08/31 05:28:44;;;;;;;16.27;14.45;;;;;;;20.08;100.00;64082.78;5026448;28;20198;-76
2022/08/31 05:31:12;;;;;;;18.73;13.45;;;;;;;20.34;100.00;64104.22;5023960;28;20301;-75
2022/08/31 05:33:40;;;;;;;21.38;13.60;;;;;;;20.41;100.00;64112.06;5022094;28;20215;-75
2022/08/31 05:36:07;;;;;;;14.88;13.38;;;;;;;20.38;100.00;64111.00;5006087;28;20214;-75
2022/08/31 05:38:34;;;;;;;20.73;14.32;;;;;;;20.28;100.00;64101.06;5006552;28;20202;-76
2022/08/31 05:41:04;;;;;;;21.35;13.95;;;;;;;20.37;100.00;64102.19;5006894;28;20237;-74
2022/08/31 05:43:32;;;;;;;21.20;13.98;;;;;;;20.45;100.00;64113.63;5024692;28;20329;-75
2022/08/31 05:45:59;;;;;;;23.50;13.48;;;;;;;20.63;100.00;64134.50;5024250;28;20214;-75
2022/08/31 05:48:32;;;;;;;14.52;12.68;;;;;;;20.57;100.00;64128.75;5026401;28;20521;-75
2022/08/31 05:51:01;;;;;;;25.60;14.68;;;;;;;20.49;100.00;64117.81;5021861;28;20557;-75
2022/08/31 05:53:28;;;;;;;31.90;14.57;;;;;;;20.43;100.00;64116.72;5025441;28;20201;-75
2022/08/31 05:55:59;;;;;;;22.27;14.55;;;;;;;20.75;100.00;64149.09;5024326;28;20256;-74
2022/08/31 05:58:28;;;;;;;18.48;13.65;;;;;;;20.62;100.00;64133.47;5023343;28;20237;-74
2022/08/31 06:00:55;;;;;;;17.65;13.27;;;;;;;20.71;100.00;64142.84;5010696;28;20226;-73
2022/08/31 06:03:22;;;;;;;20.75;13.98;;;;;;;20.77;100.00;64149.13;5016108;28;20213;-74
2022/08/31 06:05:50;;;;;;;16.20;14.27;;;;;;;20.85;100.00;64159.53;5024061;28;20410;-74
2022/08/31 06:08:17;;;;;;;24.65;14.48;;;;;;;20.85;100.00;64156.94;5021345;28;20198;-74
2022/08/31 06:10:44;;;;;;;32.42;14.65;;;;;;;20.73;100.00;64144.94;5004254;28;20234;-75
2022/08/31 06:13:13;;;;;;;17.05;12.48;;;;;;;20.95;100.00;64169.97;5026975;28;20202;-77
2022/08/31 06:15:46;;;;;;;23.08;12.80;;;;;;;21.08;100.00;64183.56;5030004;28;20547;-74
2022/08/31 06:18:13;;;;;;;14.00;12.13;;;;;;;21.32;100.00;64203.44;5022415;28;20202;-74
2022/08/31 06:20:40;;;;;;;15.48;11.52;;;;;;;21.15;100.00;64194.00;5004675;28;20210;-75
2022/08/31 06:23:08;;;;;;;11.55;10.43;;;;;;;21.24;100.00;64197.69;5013281;28;20225;-76
2022/08/31 06:25:36;;;;;;;15.55;11.30;;;;;;;20.89;100.00;64163.69;5023895;28;20285;-74
2022/08/31 06:28:04;;;;;;;18.02;11.65;;;;;;;20.88;100.00;64163.19;5024289;28;20213;-74
2022/08/31 06:30:32;;;;;;;22.23;11.55;;;;;;;20.91;100.00;64163.72;5023690;28;20195;-74
2022/08/31 06:33:01;;;;;;;13.02;10.48;;;;;;;20.92;100.00;64161.66;5008414;28;20508;-74
2022/08/31 06:35:29;;;;;;;12.32;11.05;;;;;;;21.04;100.00;64177.31;5005634;28;20245;-75
2022/08/31 06:37:56;;;;;;;13.25;10.38;;;;;;;21.11;100.00;64187.22;5023520;28;20325;-74
2022/08/31 06:40:24;;;;;;;11.82;10.55;;;;;;;21.32;100.00;64209.16;5023192;28;20202;-75
2022/08/31 06:42:51;;;;;;;22.67;11.55;;;;;;;21.46;100.00;64216.00;5016246;28;20198;-75
2022/08/31 06:45:18;;;;;;;15.52;11.38;;;;;;;21.62;99.65;64240.47;5019323;28;20216;-74
2022/08/31 06:47:46;;;;;;;11.73;10.57;;;;;;;21.58;98.88;64233.19;5006050;28;20234;-74
2022/08/31 06:50:14;;;;;;;15.48;10.50;;;;;;;21.52;99.91;64224.84;5016477;28;20202;-75
2022/08/31 06:52:41;;;;;;;18.73;11.57;;;;;;;21.53;100.00;64228.50;5023764;28;20464;-74
2022/08/31 06:55:09;;;;;;;14.30;10.48;;;;;;;21.48;100.00;64220.16;5017810;28;20202;-75
2022/08/31 06:57:36;;;;;;;10.90;9.80;;;;;;;21.49;100.00;64229.50;5009334;28;20407;-75
2022/08/31 07:00:04;;;;;;;12.07;10.05;;;;;;;21.58;99.62;64231.13;5017255;28;20217;-74
2022/08/31 07:02:31;;;;;;;10.63;9.77;;;;;;;21.86;97.63;64264.53;5021309;28;20711;-73
2022/08/31 07:04:58;;;;;;;16.17;11.15;;;;;;;21.94;97.94;64270.31;5014684;28;20218;-75
2022/08/31 07:07:26;;;;;;;17.25;10.55;;;;;;;21.86;98.94;64264.53;5014823;28;20425;-75
2022/08/31 07:09:53;;;;;;;13.23;11.00;;;;;;;21.90;97.99;64266.66;5025020;28;20198;-74
2022/08/31 07:12:20;;;;;;;11.70;10.57;;;;;;;21.92;98.28;64268.22;5023197;28;20244;-75
2022/08/31 07:14:48;;;;;;;28.00;11.82;;;;;;;21.96;97.92;64269.81;5009053;28;20198;-76
2022/08/31 07:17:15;;;;;;;14.13;10.93;;;;;;;21.88;98.84;64264.56;5009831;28;20602;-75
2022/08/31 07:19:42;;;;;;;17.60;11.77;;;;;;;21.92;98.06;64273.41;5016429;28;20207;-76
2022/08/31 07:22:10;;;;;;;15.90;10.95;;;;;;;22.11;98.05;64291.19;5027275;28;20249;-75
2022/08/31 07:24:38;;;;;;;15.48;10.48;;;;;;;22.42;95.49;64320.47;5026061;28;20198;-74
2022/08/31 07:27:08;;;;;;;13.18;11.43;;;;;;;22.31;96.24;64303.78;5023277;28;20233;-75
2022/08/31 07:29:40;;;;;;;11.63;10.25;;;;;;;22.49;96.43;64330.38;5008894;28;20210;-74
2022/08/31 07:32:07;;;;;;;13.18;10.50;;;;;;;22.57;94.47;64333.59;5006757;28;20421;-75
2022/08/31 07:34:35;;;;;;;14.00;10.95;;;;;;;22.55;94.01;64334.09;5008115;28;20199;-74
2022/08/31 07:42:39;;;;;;;11.07;9.23;;;;;;;22.92;91.69;64372.25;4985881;28;20245;-74
2022/08/31 07:45:11;;;;;;;13.32;10.68;;;;;;;22.51;92.19;64333.00;5016565;28;20198;-72
2022/08/31 07:47:45;;;;;;;20.35;10.27;;;;;;;22.48;95.45;64329.34;5012710;28;20218;-74
2022/08/31 07:50:13;;;;;;;17.40;10.75;;;;;;;22.73;92.66;64356.03;5009681;28;20187;-74
2022/08/31 07:52:47;;;;;;;12.40;10.57;;;;;;;22.95;90.92;64375.91;5010054;28;20226;-74
2022/08/31 07:55:17;;;;;;;14.10;10.25;;;;;;;23.15;90.06;64393.69;5020496;28;20483;-74
2022/08/31 07:57:44;;;;;;;14.77;10.23;;;;;;;23.26;90.56;64407.81;5023721;28;20225;-72
2022/08/31 08:00:13;;;;;;;17.17;10.68;;;;;;;23.39;88.61;64418.81;5030123;28;20202;-73
2022/08/31 08:02:45;;;;;;;15.05;10.18;;;;;;;23.45;87.31;64425.63;5030037;28;20210;-73
2022/08/31 08:05:20;;;;;;;13.40;11.13;;;;;;;23.32;88.14;64408.91;5021321;28;20228;-75
2022/08/31 08:07:49;;;;;;;15.32;10.45;;;;;;;23.34;88.52;64411.00;5028855;28;20264;-75
2022/08/31 08:10:20;;;;;;;13.13;10.38;;;;;;;23.34;88.38;64416.19;5027140;28;20409;-75
2022/08/31 08:12:52;;;;;;;13.48;10.30;;;;;;;23.07;87.25;64391.06;5022601;28;20261;-74
2022/08/31 08:15:19;;;;;;;12.05;9.27;;;;;;;23.16;85.85;64397.88;5026211;28;20198;-75
2022/08/31 08:17:46;;;;;;;10.93;9.85;;;;;;;23.23;86.58;64402.09;5027113;28;20282;-75
2022/08/31 08:20:13;;;;;;;10.93;9.88;;;;;;;23.43;85.88;64425.63;5024089;28;20194;-75
2022/08/31 08:22:42;;;;;;;11.73;9.35;;;;;;;23.51;84.81;64436.59;5008950;28;20281;-74
2022/08/31 08:25:10;;;;;;;10.95;9.85;;;;;;;23.30;83.76;64409.41;5006239;28;20257;-72
2022/08/31 08:27:39;;;;;;;11.90;9.50;;;;;;;23.33;84.56;64415.16;5008554;28;20236;-74
2022/08/31 08:30:07;;;;;;;12.60;9.48;;;;;;;23.41;84.72;64428.72;5011965;28;20206;-76
2022/08/31 08:32:35;;;;;;;11.52;9.77;;;;;;;23.86;80.38;64473.75;5026718;28;20237;-74
2022/08/31 08:35:02;;;;;;;11.40;9.13;;;;;;;23.99;80.35;64484.75;5025699;28;20197;-73
2022/08/31 08:37:29;;;;;;;12.77;9.93;;;;;;;24.02;78.60;64484.78;5026389;28;20210;-74
2022/08/31 08:39:58;;;;;;;14.50;9.52;;;;;;;23.92;79.14;64477.41;5012457;28;20589;-75
2022/08/31 08:42:25;;;;;;;12.10;9.85;;;;;;;24.02;78.08;64485.28;5009255;28;20226;-76
2022/08/31 08:44:53;;;;;;;16.48;9.50;;;;;;;23.97;79.10;64485.25;5011942;28;20198;-75
2022/08/31 08:47:27;;;;;;;12.82;9.90;;;;;;;24.04;76.73;64492.06;5021015;28;20225;-74
2022/08/31 08:49:56;;;;;;;11.35;9.73;;;;;;;23.84;75.86;64474.25;5027809;28;20213;-74
2022/08/31 08:52:25;;;;;;;10.43;9.43;;;;;;;23.99;75.71;64487.38;5026299;28;20240;-75
2022/08/31 08:54:55;;;;;;;12.93;10.50;;;;;;;24.15;76.37;64500.97;5025315;28;20217;-75
2022/08/31 08:57:26;;;;;;;11.70;9.48;;;;;;;24.43;74.23;64527.69;5025248;28;20297;-75
2022/08/31 08:59:58;;;;;;;13.77;9.93;;;;;;;24.56;70.88;64546.50;5025284;28;20450;-75
2022/08/31 09:02:30;;;;;;;10.00;9.10;;;;;;;24.82;68.57;64568.00;5025537;28;20542;-73
2022/08/31 09:05:10;;;;;;;9.98;9.18;;;;;;;24.53;69.17;64545.44;5025068;28;20431;-73
2022/08/31 09:07:59;;;;;;;10.95;9.57;;;;;;;24.55;69.63;64544.94;5019752;28;20418;-75
2022/08/31 09:10:33;;;;;;;14.38;8.70;;;;;;;24.94;66.28;64580.59;5006606;28;20210;-75
2022/08/31 09:13:13;;;;;;;10.90;9.27;;;;;;;24.78;69.10;64566.97;5005400;28;20585;-75
2022/08/31 09:16:03;;;;;;;10.15;8.70;;;;;;;24.69;67.80;64554.94;5019886;28;20209;-75
2022/08/31 09:18:42;;;;;;;10.85;9.75;;;;;;;24.71;66.31;64554.41;5025765;28;20198;-73
2022/08/31 09:21:24;;;;;;;10.05;8.90;;;;;;;24.74;67.18;64564.84;5026272;28;20391;-76
2022/08/31 09:24:00;;;;;;;12.70;8.35;;;;;;;24.80;66.24;64571.66;5022459;28;20205;-72
2022/08/31 09:26:34;;;;;;;9.52;8.32;;;;;;;24.83;67.28;64569.59;5005434;28;20220;-73
2022/08/31 09:29:02;;;;;;;11.10;8.18;;;;;;;24.84;67.23;64570.66;5007395;28;20199;-74
2022/08/31 09:31:37;;;;;;;10.50;9.02;;;;;;;24.82;67.29;64568.53;5005578;28;20225;-73
2022/08/31 09:34:11;;;;;;;11.40;8.40;;;;;;;25.16;62.17;64608.84;5019948;28;20216;-74
2022/08/31 09:36:40;;;;;;;8.18;7.32;;;;;;;25.33;60.38;64621.44;5005646;28;20223;-73
2022/08/31 09:39:28;;;;;;;13.38;8.70;;;;;;;25.36;62.93;64626.66;5005572;28;20199;-75
2022/08/31 09:42:11;;;;;;;9.85;8.57;;;;;;;25.63;61.27;64658.09;5010015;28;20259;-76
2022/08/31 09:44:41;;;;;;;11.48;7.68;;;;;;;25.65;58.68;64654.47;5006958;28;20193;-73
2022/08/31 09:47:44;;;;;;;9.55;8.55;;;;;;;25.49;60.41;64643.44;5006062;28;20433;-75
2022/08/31 09:50:30;;;;;;;12.13;9.00;;;;;;;25.76;60.86;64669.13;5005720;28;20195;-75
2022/08/31 09:56:14;;;;;;;9.23;8.45;;;;;;;25.25;57.38;64617.75;5024816;28;20212;-74
2022/08/31 09:58:44;;;;;;;8.18;7.47;;;;;;;25.24;57.27;64614.09;5006326;28;20260;-74
2022/08/31 10:01:15;;;;;;;8.82;7.95;;;;;;;25.54;56.33;64646.06;5015657;28;20243;-73
2022/08/31 10:03:44;;;;;;;9.20;7.82;;;;;;;26.01;53.38;64697.41;5025329;28;20365;-74
2022/08/31 10:06:40;;;;;;;9.05;7.63;;;;;;;26.20;54.22;64714.75;5026370;28;20218;-72
2022/08/31 10:09:20;;;;;;;10.13;7.55;;;;;;;26.57;50.45;64748.31;5009631;28;20206;-76
2022/08/31 10:11:51;;;;;;;8.80;7.20;;;;;;;26.52;52.04;64750.91;5013372;28;20220;-74
2022/08/31 10:14:29;;;;;;;10.52;7.90;;;;;;;26.76;51.46;64770.88;5013811;28;20199;-74
2022/08/31 10:17:02;;;;;;;9.35;7.68;;;;;;;27.22;51.54;64821.72;5004649;28;20223;-74
2022/08/31 10:19:52;;;;;;;8.93;7.38;;;;;;;27.15;51.19;64819.63;5007548;28;20202;-75
2022/08/31 10:22:27;;;;;;;11.32;8.10;;;;;;;27.42;49.30;64841.69;5006115;28;20219;-76
2022/08/31 10:25:05;;;;;;;8.80;7.82;;;;;;;27.59;48.64;64860.06;5008492;28;20202;-74
2022/08/31 10:27:41;;;;;;;7.70;7.07;;;;;;;27.65;48.99;64863.19;5006720;28;20226;-74
2022/08/31 10:30:17;;;;;;;8.85;7.55;;;;;;;28.04;47.46;64906.78;5013284;28;20205;-73
2022/08/31 10:32:54;;;;;;;10.95;7.40;;;;;;;28.34;45.53;64943.50;5022829;28;20237;-76
2022/08/31 10:35:28;;;;;;;8.35;7.53;;;;;;;28.53;44.61;64957.72;5024609;28;20193;-74
2022/08/31 10:38:08;;;;;;;8.98;7.03;;;;;;;28.37;43.71;64941.94;5024589;28;20202;-73
2022/08/31 10:40:43;;;;;;;8.25;7.43;;;;;;;27.90;43.33;64892.59;5023914;28;20362;-76
2022/08/31 10:43:17;;;;;;;8.50;7.65;;;;;;;28.44;42.63;64949.28;5021489;28;20209;-75
2022/08/31 10:45:47;;;;;;;9.13;7.45;;;;;;;28.85;42.15;64991.31;5017655;28;20250;-77
2022/08/31 10:48:16;;;;;;;9.52;6.93;;;;;;;29.31;42.66;65040.19;5004845;28;20194;-75
2022/08/31 10:50:56;;;;;;;7.90;7.20;;;;;;;29.31;40.16;65039.66;5014593;28;20230;-74
2022/08/31 10:53:34;;;;;;;8.73;7.70;;;;;;;28.53;41.72;64958.25;5005275;28;20417;-73
2022/08/31 10:56:13;;;;;;;8.75;6.90;;;;;;;27.71;44.43;64872.66;5004824;28;20222;-73
2022/08/31 10:59:02;;;;;;;11.90;7.55;;;;;;;26.57;53.70;64756.16;5014221;28;20548;-74
2022/08/31 11:01:36;;;;;;;12.63;8.52;;;;;;;25.60;60.16;64654.97;5009351;28;20473;-76
2022/08/31 11:04:28;;;;;;;13.45;8.15;;;;;;;25.26;62.73;64614.13;5004026;28;20618;-76
2022/08/31 11:07:04;;;;;;;12.30;8.55;;;;;;;25.00;64.46;64589.47;5006712;28;20213;-73
2022/08/31 11:09:37;;;;;;;12.20;8.65;;;;;;;24.42;67.96;64533.94;5023776;28;20493;-74
2022/08/31 11:12:09;;;;;;;13.50;9.18;;;;;;;24.30;70.36;64518.78;5026821;28;20280;-74
2022/08/31 11:15:08;;;;;;;11.95;8.13;;;;;;;24.06;72.25;64491.56;5029569;28;20230;-75
2022/08/31 11:18:08;;;;;;;14.45;8.43;;;;;;;24.07;71.35;64492.09;5026999;28;20241;-74
2022/08/31 11:21:02;;;;;;;11.75;7.80;;;;;;;23.92;73.96;64477.41;5021431;28;20248;-74
2022/08/31 11:23:57;;;;;;;12.18;8.55;;;;;;;24.00;71.10;64485.28;5028553;28;20198;-75
2022/08/31 11:26:49;;;;;;;10.77;7.72;;;;;;;24.09;68.97;64494.19;5031037;28;20228;-74
2022/08/31 11:29:29;;;;;;;10.20;8.25;;;;;;;24.18;67.93;64504.13;5017314;28;20577;-74
2022/08/31 11:32:04;;;;;;;8.75;7.38;;;;;;;23.82;70.05;64463.81;5028439;28;20224;-75
2022/08/31 11:34:45;;;;;;;8.82;7.95;;;;;;;23.61;70.65;64449.66;5029290;28;20585;-76
2022/08/31 11:37:34;;;;;;;10.65;9.27;;;;;;;23.60;70.05;64443.41;5022949;28;20347;-74
2022/08/31 11:40:12;;;;;;;11.40;9.48;;;;;;;23.49;69.32;64429.28;5010106;28;20198;-74
2022/08/31 11:43:00;;;;;;;11.38;8.68;;;;;;;23.57;69.28;64437.66;5017912;28;20214;-73
2022/08/31 11:45:30;;;;;;;9.00;8.10;;;;;;;23.56;69.87;64441.81;5012676;28;20201;-75